createdAt,value
2022-10-19T00:03:35.928Z,37.40
2022-10-19T00:08:38.919Z,36.25
2022-10-19T00:13:41.955Z,36.22
2022-10-19T00:18:46.402Z,36.85
2022-10-19T00:23:50.091Z,36.30
2022-10-19T00:28:54.439Z,37.38
2022-10-19T00:33:59.540Z,37.30
2022-10-19T00:39:03.635Z,36.95
2022-10-19T00:44:09.043Z,37.38
2022-10-19T00:49:20.396Z,36.55
2022-10-19T00:54:26.514Z,35.85
2022-10-19T00:59:31.745Z,36.22
2022-10-19T01:04:38.920Z,35.97
2022-10-19T01:09:41.907Z,36.55
2022-10-19T01:14:58.983Z,36.55
2022-10-19T01:20:33.162Z,36.60
2022-10-19T01:25:48.924Z,36.45
2022-10-19T01:30:58.722Z,36.15
2022-10-19T01:36:09.025Z,36.08
2022-10-19T01:41:18.668Z,36.20
2022-10-19T01:46:29.787Z,37.10
2022-10-19T01:51:36.500Z,36.25
2022-10-19T01:56:42.939Z,36.65
2022-10-19T02:01:50.739Z,36.53
2022-10-19T02:06:55.258Z,37.33
2022-10-19T02:12:01.594Z,37.10
2022-10-19T02:17:10.046Z,37.70
2022-10-19T02:22:13.894Z,37.05
2022-10-19T02:27:17.220Z,37.03
2022-10-19T02:32:21.671Z,37.08
2022-10-19T02:37:25.755Z,36.63
2022-10-19T02:42:33.719Z,36.15
2022-10-19T02:47:43.283Z,36.47
2022-10-19T02:52:46.228Z,37.30
2022-10-19T02:57:49.123Z,36.80
2022-10-19T03:02:53.495Z,37.42
2022-10-19T03:07:56.394Z,37.28
2022-10-19T03:12:59.565Z,37.10
2022-10-19T03:18:03.746Z,36.33
2022-10-19T03:23:06.649Z,37.47
2022-10-19T03:28:09.526Z,38.15
2022-10-19T03:33:13.850Z,37.90
2022-10-19T03:38:17.044Z,37.95
2022-10-19T03:43:19.916Z,37.42
2022-10-19T03:48:24.224Z,38.08
2022-10-19T03:53:27.338Z,37.90
2022-10-19T03:58:30.302Z,40.30
2022-10-19T04:08:42.664Z,37.00
2022-10-19T04:13:45.548Z,37.30
2022-10-19T04:18:50.187Z,37.38
2022-10-19T04:23:54.398Z,37.05
2022-10-19T04:28:59.197Z,37.00
2022-10-19T04:34:03.654Z,36.85
2022-10-19T04:39:07.747Z,36.75
2022-10-19T04:44:11.260Z,37.08
2022-10-19T04:49:18.017Z,37.35
2022-10-19T04:54:23.251Z,37.00
2022-10-19T04:59:26.466Z,36.70
2022-10-19T05:04:30.712Z,36.85
2022-10-19T05:09:33.600Z,38.53
2022-10-19T05:14:39.029Z,37.78
2022-10-19T05:19:46.300Z,37.42
2022-10-19T05:24:49.254Z,36.53
2022-10-19T05:29:52.086Z,36.78
2022-10-19T05:34:56.434Z,38.22
2022-10-19T05:39:59.319Z,37.53
2022-10-19T05:45:02.279Z,37.88
2022-10-19T05:50:07.284Z,36.60
2022-10-19T05:55:10.794Z,37.13
2022-10-19T06:00:15.162Z,36.72
2022-10-19T06:05:19.448Z,37.53
2022-10-19T06:10:22.663Z,36.95
2022-10-19T06:15:25.535Z,37.60
2022-10-19T06:20:29.775Z,36.67
2022-10-19T06:25:33.059Z,36.40
2022-10-19T06:30:39.111Z,35.85
2022-10-19T06:35:43.418Z,40.42
2022-10-19T06:40:46.346Z,48.20
2022-10-19T06:45:49.226Z,40.83
2022-10-19T06:50:58.930Z,38.25
2022-10-19T06:56:03.781Z,37.25
2022-10-19T07:01:08.489Z,37.65
2022-10-19T07:06:14.026Z,36.92
2022-10-19T07:11:18.823Z,37.00
2022-10-19T07:16:22.029Z,37.40
2022-10-19T07:21:26.325Z,37.65
2022-10-19T07:26:30.497Z,37.97
2022-10-19T07:31:33.802Z,37.58
2022-10-19T07:36:38.062Z,37.22
2022-10-19T07:41:41.300Z,37.47
2022-10-19T07:46:44.451Z,37.92
2022-10-19T07:51:48.872Z,37.40
2022-10-19T07:56:51.769Z,37.90
2022-10-19T08:01:55.870Z,37.78
2022-10-19T08:07:00.218Z,36.88
2022-10-19T08:12:03.198Z,36.97
2022-10-19T08:17:06.063Z,37.25
2022-10-19T08:22:10.742Z,38.58
2022-10-19T08:27:14.771Z,38.13
2022-10-19T08:32:17.655Z,38.13
2022-10-19T08:37:39.985Z,38.25
2022-10-19T08:42:50.445Z,39.30
2022-10-19T08:48:28.832Z,38.92
2022-10-19T08:53:40.755Z,38.80
2022-10-19T08:58:54.577Z,39.20
2022-10-19T09:04:03.357Z,38.65
2022-10-19T09:09:07.827Z,38.92
2022-10-19T09:14:15.872Z,38.30
2022-10-19T09:19:25.444Z,39.00
2022-10-19T09:24:35.968Z,39.03
2022-10-19T09:29:43.086Z,38.80
2022-10-19T09:34:48.653Z,40.25
2022-10-19T09:39:54.850Z,39.53
2022-10-19T09:45:01.393Z,39.10
2022-10-19T09:50:19.050Z,38.22
2022-10-19T09:55:29.235Z,39.33
2022-10-19T10:00:42.238Z,40.08
2022-10-19T10:05:48.810Z,39.50
2022-10-19T10:11:01.630Z,40.97
2022-10-19T10:16:07.420Z,39.55
2022-10-19T10:21:14.966Z,41.42
2022-10-19T10:26:20.457Z,40.60
2022-10-19T10:31:27.009Z,42.17
2022-10-19T10:36:31.279Z,41.70
2022-10-19T10:41:41.373Z,40.13
2022-10-19T10:46:51.325Z,40.88
2022-10-19T10:51:56.968Z,40.70
2022-10-19T10:57:14.161Z,41.40
2022-10-19T11:02:29.104Z,41.22
2022-10-19T11:07:34.685Z,42.97
2022-10-19T11:12:42.366Z,42.17
2022-10-19T11:17:55.625Z,42.20
2022-10-19T11:23:08.543Z,40.72
2022-10-19T11:28:29.013Z,41.60
2022-10-19T11:33:44.474Z,42.72
2022-10-19T11:38:55.071Z,42.70
2022-10-19T11:44:08.668Z,42.78
2022-10-19T11:49:23.918Z,42.45
2022-10-19T11:54:39.799Z,43.13
2022-10-19T12:00:13.637Z,41.83
2022-10-19T12:05:26.394Z,41.25
2022-10-19T12:10:35.096Z,41.97
2022-10-19T12:15:44.362Z,41.55
2022-10-19T12:20:50.845Z,42.45
2022-10-19T12:25:57.362Z,41.25
2022-10-19T12:31:03.652Z,41.85
2022-10-19T12:36:20.863Z,41.80
2022-10-19T12:41:28.238Z,43.67
2022-10-19T12:46:40.648Z,42.42
2022-10-19T12:51:47.189Z,41.70
2022-10-19T12:56:51.951Z,41.28
2022-10-19T13:01:57.131Z,40.97
2022-10-19T13:07:02.673Z,41.28
2022-10-19T13:12:28.242Z,40.05
2022-10-19T13:17:43.887Z,40.42
2022-10-19T13:22:48.904Z,39.50
2022-10-19T13:27:53.199Z,39.33
2022-10-19T13:32:57.567Z,40.08
2022-10-19T13:38:28.667Z,39.63
2022-10-19T13:43:34.695Z,39.97
2022-10-19T13:48:57.092Z,39.08
2022-10-19T13:54:09.064Z,39.40
2022-10-19T13:59:39.048Z,39.33
2022-10-19T14:04:51.652Z,39.53
2022-10-19T14:10:07.868Z,40.22
2022-10-19T14:15:23.356Z,39.78
2022-10-19T14:20:31.370Z,39.05
2022-10-19T14:25:34.330Z,37.95
2022-10-19T14:30:37.961Z,39.00
2022-10-19T14:35:44.964Z,39.60
2022-10-19T14:40:47.913Z,39.42
2022-10-19T14:46:12.375Z,38.25
2022-10-19T14:51:37.376Z,38.35
2022-10-19T14:56:44.588Z,37.70
2022-10-19T15:01:51.022Z,38.35
2022-10-19T15:06:57.111Z,37.92
2022-10-19T15:12:07.236Z,37.88
2022-10-19T15:17:24.660Z,37.58
2022-10-19T15:22:40.169Z,37.92
2022-10-19T15:27:47.070Z,38.88
2022-10-19T15:32:52.128Z,38.05
2022-10-19T15:38:03.950Z,38.03
2022-10-19T15:43:35.701Z,37.67
2022-10-19T15:48:55.453Z,38.63
2022-10-19T15:54:01.750Z,37.53
2022-10-19T15:59:06.768Z,38.28
2022-10-19T16:04:09.916Z,39.58
2022-10-19T16:09:20.151Z,37.55
2022-10-19T16:14:22.999Z,38.75
2022-10-19T16:19:25.960Z,37.65
2022-10-19T16:24:30.214Z,38.22
2022-10-19T16:29:40.410Z,37.63
2022-10-19T16:34:43.286Z,38.03
2022-10-19T16:39:47.504Z,37.85
2022-10-19T16:44:50.395Z,38.05
2022-10-19T16:49:59.012Z,37.78
2022-10-19T16:55:07.424Z,37.75
2022-10-19T17:00:11.300Z,38.20
2022-10-19T17:05:15.436Z,38.90
2022-10-19T17:10:19.705Z,38.15
2022-10-19T17:15:42.991Z,38.53
2022-10-19T17:20:45.507Z,38.47
2022-10-19T17:25:50.418Z,38.38
2022-10-19T17:30:53.709Z,38.28
2022-10-19T17:35:57.376Z,38.20
2022-10-19T17:41:05.398Z,38.03
2022-10-19T17:46:10.227Z,38.45
2022-10-19T17:51:16.476Z,37.92
2022-10-19T17:56:22.248Z,37.15
2022-10-19T18:01:26.887Z,37.95
2022-10-19T18:06:32.516Z,38.03
2022-10-19T18:11:38.751Z,37.08
2022-10-19T18:16:44.664Z,37.25
2022-10-19T18:21:49.128Z,37.47
2022-10-19T18:26:53.406Z,37.38
2022-10-19T18:31:56.561Z,37.45
2022-10-19T18:36:59.486Z,37.88
2022-10-19T18:42:03.767Z,36.88
2022-10-19T18:47:06.668Z,36.97
2022-10-19T18:52:09.548Z,37.10
2022-10-19T18:57:13.804Z,36.75
2022-10-19T19:02:34.996Z,36.97
2022-10-19T19:07:39.601Z,37.03
2022-10-19T19:12:51.351Z,37.65
2022-10-19T19:17:55.502Z,37.17
2022-10-19T19:22:58.341Z,36.95
2022-10-19T19:28:11.578Z,36.80
2022-10-19T19:33:15.207Z,36.60
2022-10-19T19:38:18.099Z,36.83
2022-10-19T19:43:22.391Z,37.53
2022-10-19T19:48:25.551Z,37.67
2022-10-19T19:53:28.463Z,38.08
2022-10-19T19:58:32.744Z,36.42
2022-10-19T20:03:51.119Z,37.33
2022-10-19T20:09:13.050Z,37.20
2022-10-19T20:14:18.663Z,37.88
2022-10-19T20:19:21.674Z,37.13
2022-10-19T20:24:24.518Z,37.55
2022-10-19T20:29:28.811Z,37.85
2022-10-19T20:34:31.763Z,37.28
2022-10-19T20:39:41.880Z,37.65
2022-10-19T20:44:46.250Z,37.15
2022-10-19T20:49:49.483Z,36.92
2022-10-19T20:54:52.542Z,38.90
2022-10-19T20:59:56.780Z,38.15
2022-10-19T21:04:59.636Z,37.15
2022-10-19T21:10:02.530Z,37.15
2022-10-19T21:15:07.747Z,36.97
2022-10-19T21:20:11.113Z,37.85
2022-10-19T21:25:14.120Z,37.15
2022-10-19T21:30:18.527Z,37.97
2022-10-19T21:35:21.420Z,37.35
2022-10-19T21:40:24.295Z,37.08
2022-10-19T21:45:30.813Z,36.70
2022-10-19T21:50:35.059Z,36.75
2022-10-19T21:55:38.556Z,36.88
2022-10-19T22:00:50.274Z,36.10
2022-10-19T22:05:53.563Z,36.72
2022-10-19T22:10:56.435Z,36.83
2022-10-19T22:16:06.015Z,37.00
2022-10-19T22:21:10.903Z,36.40
2022-10-19T22:26:15.061Z,36.10
2022-10-19T22:31:19.632Z,36.15
2022-10-19T22:36:22.864Z,36.00
2022-10-19T22:41:25.731Z,36.78
2022-10-19T22:46:29.937Z,36.00
2022-10-19T22:51:33.085Z,35.92
2022-10-19T22:56:36.091Z,36.65
2022-10-19T23:01:40.424Z,36.15
2022-10-19T23:06:43.358Z,36.15
2022-10-19T23:11:46.235Z,36.10
2022-10-19T23:16:50.462Z,36.63
2022-10-19T23:21:53.372Z,36.17
2022-10-19T23:26:56.229Z,35.92
2022-10-19T23:32:00.451Z,36.10
2022-10-19T23:37:03.330Z,36.38
2022-10-19T23:42:06.231Z,35.95
2022-10-19T23:47:10.537Z,36.25
2022-10-19T23:52:13.458Z,36.33
2022-10-19T23:57:16.813Z,36.70
